Latest Coastal Weather Observations for Ceduna

IDS60701

Issued at 8:11 pm CST Wednesday 28 June 2017 (issued every 10 minutes, with the page automatically refreshed every 10 minutes)

About coastal observations | Map of coastal stations | Coastal observations for SA | Marine services | Other Formats
Station Details ID: 018012 Name: CEDUNA AMO Lat: -32.13 Lon: 133.70 Height: 15.3 m
Data from the previous 72 hours. | See also: Recent months at Ceduna
Date/Time
CST
Temp
°C
Wind Pressure Rain since
9am
mm
Weather Cloud Vis
km
Sea
Height
m
Swell
Dir  Spd
kts
Gust
kts
hPa Trend Height
m
Period
s
Dir
28/08:00pm 13.2 S 15 23 1029.1 - 1.4 - Partly cloudy 10 - - - -
28/07:30pm 13.5 S 14 21 1028.8 - 1.4 - Cloudy 10 - - - -
28/07:00pm 13.1 S 13 17 1028.4 - 1.4 - Partly cloudy 10 - - - -
28/06:30pm 13.2 S 14 20 1027.9 - 1.4 - Partly cloudy 10 - - - -
28/06:00pm 13.6 SSW 16 22 1027.2 R 1.4 - Partly cloudy 10 - - - -
28/05:30pm 14.0 S 17 22 1026.9 - 1.4 - Partly cloudy 10 - - - -
28/05:00pm 14.1 S 11 15 1026.6 - 1.4 - Partly cloudy 10 - - - -
28/04:30pm 13.9 S 17 22 1026.3 - 1.4 - Partly cloudy 10 - - - -
28/04:00pm 13.8 S 14 21 1026.1 - 1.4 - Partly cloudy 10 - - - -
28/03:30pm 15.7 S 15 21 1025.6 - 1.2 - Partly cloudy 10 - - - -
28/03:00pm 14.8 SSW 15 21 1025.3 R 1.2 - Mostly cloudy 10 - - - -
28/02:30pm 15.9 S 14 17 1025.2 - 1.2 - - 10 - - - -
28/02:00pm 15.6 S 13 17 1025.1 - 1.2 - - 10 - - - -
28/01:30pm 15.9 SSW 11 15 1025.1 - 1.2 - - 10 - - - -
28/01:00pm 15.1 SW 10 13 1025.4 - 1.2 - Partly cloudy 10 - - - -
28/12:30pm 14.8 W 9 12 1025.7 - 1.2 - Partly cloudy 10 - - - -
28/12:00pm 14.1 W 9 12 1026.0 R 1.2 - - 10 - - - -
28/11:30am 13.9 WNW 7 10 1025.9 - 1.2 - - 10 - - - -
28/11:00am 12.4 WNW 7 9 1026.0 - 1.2 - Partly cloudy 10 - - - -
28/10:30am 11.5 WNW 6 7 1026.0 - 1.2 - Partly cloudy 10 - - - -
28/10:00am 11.9 WSW 5 9 1026.0 - 0.0 - Partly cloudy 10 - - - -
28/09:30am 10.9 WNW 8 10 1025.5 - 0.0 - Partly cloudy 10 - - - -
28/09:00am 8.5 NNW 4 5 1025.2 R 0.2 Recent precip. Partly cloudy 10 - - - -
28/08:30am 8.5 NW 6 8 1024.8 - 0.2 - Cloudy 10 - - - -
28/08:00am 7.4 NW 8 9 1024.7 - 0.0 - Partly cloudy 10 - - - -
28/07:54am 6.2 NW 7 9 1024.7 - 0.0 - Partly cloudy 10 - - - -
28/07:30am 3.9 N 5 6 1024.3 - 0.0 - - 2 - - - -
28/07:00am 4.3 N 5 6 1024.0 - 0.0 - - 3 - - - -
28/06:30am 4.9 NNW 5 6 1023.9 - 0.0 - - 0.7 - - - -
28/06:01am 5.7 NNW 6 8 1023.7 - 0.0 - - 4 - - - -
28/06:00am 5.7 NNW 7 8 1023.7 R 0.0 - - 7 - - - -
28/05:30am 6.6 NNW 6 7 1023.7 - 0.0 - - 10 - - - -
28/05:00am 6.4 NNW 6 7 1023.6 - 0.0 - Partly cloudy 10 - - - -
28/04:39am 6.8 NW 5 6 1023.6 - 0.0 - Partly cloudy 10 - - - -
28/04:30am 6.8 NW 6 7 1023.6 - 0.0 - Partly cloudy 6 - - - -
28/04:02am 6.0 NNW 5 6 1023.4 - 0.0 - Partly cloudy 4 - - - -
28/04:00am 6.3 NNW 5 6 1023.4 - 0.0 - Partly cloudy 10 - - - -
28/03:30am 6.5 NNW 6 7 1023.4 - 0.0 - Partly cloudy 10 - - - -
28/03:22am 6.8 NW 6 7 1023.5 - 0.0 - Partly cloudy 10 - - - -
28/03:00am 6.1 NW 5 6 1023.6 R 0.0 - - 0.5 - - - -
28/02:30am 6.1 NNW 5 6 1023.7 - 0.0 - - 2 - - - -
28/02:00am 6.3 NNW 5 6 1023.5 - 0.0 - - 3 - - - -
28/01:48am 6.1 NNW 5 6 1023.4 - 0.0 - - 5 - - - -
28/01:46am 6.2 NNW 5 6 1023.4 - 0.0 - - 8 - - - -
28/01:30am 6.3 NW 4 5 1023.6 - 0.0 - - 1 - - - -
28/01:10am 4.5 CALM 0 0 1023.5 - 0.0 - - 3 - - - -
28/01:00am 4.6 CALM 0 0 1023.5 - 0.0 - - 10 - - - -
28/12:56am 4.5 CALM 0 0 1023.5 - 0.0 - - 10 - - - -
28/12:30am 5.6 CALM 0 0 1023.4 - 0.0 - - 0.3 - - - -
28/12:00am 5.9 N 2 5 1023.5 F 0.0 - - 2 - - - -
 
Date/Time
CST
Temp
°C
Wind Pressure Rain since
9am
mm
Weather Cloud Vis
km
Sea
Height
m
Swell
Dir  Spd
kts
Gust
kts
hPa Trend Height
m
Period
s
Dir
27/11:58pm 6.7 N 3 5 1023.5 - 0.0 - - 5 - - - -
27/11:30pm 8.7 NNW 5 6 1023.7 - 0.0 - - 10 - - - -
27/11:00pm 9.1 NNW 5 6 1024.0 - 0.0 - Partly cloudy 10 - - - -
27/10:30pm 9.5 NNW 4 5 1024.3 - 0.0 - Partly cloudy 10 - - - -
27/10:00pm 10.6 N 4 5 1024.1 - 0.0 - Partly cloudy 10 - - - -
27/09:30pm 11.0 N 5 5 1024.2 - 0.0 - Partly cloudy 10 - - - -
27/09:00pm 11.1 NNW 4 5 1024.2 R 0.0 - Cloudy 10 - - - -
27/08:30pm 11.4 N 6 7 1024.0 - 0.0 - Partly cloudy 10 - - - -
27/08:00pm 11.9 NNW 6 7 1023.9 - 0.0 - Partly cloudy 10 - - - -
27/07:30pm 12.0 NNW 5 7 1023.6 - 0.0 - Partly cloudy 10 - - - -
27/07:00pm 12.3 NNW 5 7 1023.4 - 0.0 - Partly cloudy 10 - - - -
27/06:30pm 12.3 NW 5 7 1023.0 - 0.0 - Partly cloudy 10 - - - -
27/06:00pm 13.0 SSW 1 3 1022.6 S 0.0 - Cloudy 10 - - - -
27/05:30pm 13.7 SW 5 6 1022.7 - 0.0 - Partly cloudy 10 - - - -
27/05:00pm 14.0 WSW 5 7 1022.6 - 0.0 - Partly cloudy 10 - - - -
27/04:30pm 14.1 SW 5 6 1022.5 - 0.0 - Partly cloudy 10 - - - -
27/04:00pm 14.4 SSW 7 8 1022.3 - 0.0 - Partly cloudy 10 - - - -
27/03:30pm 14.8 SSW 7 9 1022.2 - 0.0 - Partly cloudy 10 - - - -
27/03:00pm 14.7 SW 6 7 1022.1 F 0.0 - Cloudy 10 - - - -
27/02:30pm 15.5 W 4 8 1022.2 - 0.0 - Partly cloudy 10 - - - -
27/02:00pm 15.5 CALM 0 3 1022.4 - 0.0 - Cloudy 10 - - - -
27/01:30pm 14.7 NW 4 6 1022.8 - 0.0 - Cloudy 10 - - - -
27/01:00pm 14.7 W 4 7 1023.3 - 0.0 - Partly cloudy 10 - - - -
27/12:30pm 14.4 NNW 5 7 1023.9 - 0.0 - Partly cloudy 10 - - - -
27/12:00pm 14.0 NNW 6 8 1024.2 R 0.0 - Cloudy 10 - - - -
27/11:30am 14.2 NNW 5 7 1024.5 - 0.0 - Partly cloudy 10 - - - -
27/11:00am 13.2 N 5 7 1024.8 - 0.0 - Cloudy 10 - - - -
27/10:30am 12.2 NNE 4 5 1024.9 - 0.0 - Partly cloudy 10 - - - -
27/10:00am 11.5 NNE 4 5 1024.9 - 0.0 - Partly cloudy 10 - - - -
27/09:30am 10.8 NE 4 5 1024.6 - 0.0 - Cloudy 10 - - - -
27/09:00am 9.8 NNE 4 5 1024.3 F 0.0 - Cloudy 10 - - - -
27/08:30am 9.1 NE 3 4 1024.0 - 0.0 - Cloudy 10 - - - -
27/08:00am 8.9 N 5 5 1023.7 - 0.0 - Cloudy 10 - - - -
27/07:30am 8.3 CALM 0 4 1023.5 - 0.0 - Cloudy 10 - - - -
27/07:00am 7.6 CALM 0 0 1023.6 - 0.0 - Cloudy 10 - - - -
27/06:30am 7.9 NNE 2 4 1023.3 - 0.0 - Cloudy 10 - - - -
27/06:00am 8.2 N 3 4 1023.1 F 0.0 - Cloudy 10 - - - -
27/05:30am 7.9 N 3 3 1023.1 - 0.0 - Partly cloudy 10 - - - -
27/05:00am 7.9 N 2 3 1023.0 - 0.0 - - 10 - - - -
27/04:30am 8.5 N 5 6 1023.0 - 0.0 - Partly cloudy 10 - - - -
27/04:00am 8.3 N 3 3 1023.2 - 0.0 - Partly cloudy 10 - - - -
27/03:30am 8.8 NNE 5 6 1023.4 - 0.0 - Cloudy 10 - - - -
27/03:00am 7.8 N 2 3 1023.6 S 0.0 - Cloudy 10 - - - -
27/02:30am 8.2 N 3 4 1023.6 - 0.0 - - 10 - - - -
27/02:00am 8.3 N 1 4 1023.6 - 0.0 - - 10 - - - -
27/01:30am 9.4 N 3 4 1023.5 - 0.0 - Partly cloudy 10 - - - -
27/01:00am 9.9 NNE 5 6 1023.9 - 0.0 - Partly cloudy 10 - - - -
27/12:30am 10.0 NE 7 8 1024.1 - 0.0 - Cloudy 10 - - - -
27/12:00am 9.5 ENE 4 5 1024.1 F 0.0 - Mostly cloudy 10 - - - -
 
Date/Time
CST
Temp
°C
Wind Pressure Rain since
9am
mm
Weather Cloud Vis
km
Sea
Height
m
Swell
Dir  Spd
kts
Gust
kts
hPa Trend Height
m
Period
s
Dir
26/11:30pm 9.7 ENE 3 4 1024.4 - 0.0 - - 10 - - - -
26/11:00pm 9.8 ENE 6 7 1024.4 - 0.0 - - 10 - - - -
26/10:30pm 9.6 ENE 5 6 1024.4 - 0.0 - - 10 - - - -
26/10:00pm 10.1 ENE 5 6 1024.5 - 0.0 - - 10 - - - -
26/09:30pm 10.4 ENE 5 5 1024.8 - 0.0 - - 10 - - - -
26/09:00pm 10.4 ESE 5 6 1024.7 F 0.0 - Mostly cloudy 10 - - - -
26/08:30pm 10.4 ESE 3 4 1024.8 - 0.0 - - 10 - - - -
26/08:00pm 11.1 SSE 3 4 1024.7 - 0.0 - - 10 - - - -
26/07:30pm 11.2 CALM 0 0 1024.7 - 0.0 - Partly cloudy 10 - - - -
26/07:00pm 11.9 SSE 3 3 1024.6 - 0.0 - Partly cloudy 10 - - - -
26/06:30pm 11.6 CALM 0 2 1024.4 - 0.0 - Partly cloudy 10 - - - -
26/06:00pm 12.3 S 4 4 1023.9 F 0.0 - Cloudy 10 - - - -
26/05:30pm 13.1 SSE 4 5 1023.9 - 0.0 - Partly cloudy 10 - - - -
26/05:00pm 14.0 S 4 5 1023.8 - 0.0 - Partly cloudy 10 - - - -
26/04:30pm 14.4 S 5 6 1024.1 - 0.0 - Partly cloudy 10 - - - -
26/04:00pm 14.5 SSW 7 8 1023.9 - 0.0 - Partly cloudy 10 - - - -
26/03:30pm 14.8 SSW 8 9 1023.8 - 0.0 - - 10 - - - -
26/03:00pm 14.9 SW 8 9 1024.0 R 0.0 - Cloudy 10 - - - -
26/02:30pm 15.1 SW 7 8 1023.9 - 0.0 - Partly cloudy 10 - - - -
26/02:00pm 15.2 SW 5 8 1024.2 - 0.0 - Partly cloudy 10 - - - -
26/01:30pm 16.2 NE 5 7 1024.4 - 0.0 - Partly cloudy 10 - - - -
26/01:00pm 16.1 NE 7 10 1024.8 - 0.0 - Partly cloudy 10 - - - -
26/12:30pm 16.6 NE 5 10 1025.1 - 0.0 - Partly cloudy 10 - - - -
26/12:00pm 15.9 E 5 7 1025.4 R 0.0 - Mostly cloudy 10 - - - -
26/11:30am 14.6 NNE 1 4 1026.0 - 0.0 - - 10 - - - -
26/11:00am 13.5 N 3 5 1026.8 - 0.0 - - 10 - - - -
26/10:30am 11.2 NNW 4 6 1026.9 - 0.0 - - 10 - - - -
26/10:00am 10.5 N 4 5 1026.6 - 0.0 - - 10 - - - -
26/09:30am 9.1 NNE 3 4 1026.0 - 0.0 - - 10 - - - -
26/09:00am 7.7 NNE 3 4 1025.7 F 1.4 - - 10 - - - -
26/08:30am 7.2 NE 7 8 1025.2 - 1.4 - - 10 - - - -
26/08:00am 6.6 NE 8 9 1024.7 - 1.4 - - 10 - - - -
26/07:30am 5.9 NE 7 8 1024.5 - 1.4 - - 10 - - - -
26/07:00am 4.9 E 7 8 1024.4 - 1.4 - - 10 - - - -
26/06:55am 4.0 E 6 7 1024.4 - 1.4 - - 10 - - - -
26/06:36am 4.9 NNE 4 5 1024.6 - 1.4 - - 5 - - - -
26/06:30am 5.5 NNE 3 4 1024.7 - 1.4 - - 10 - - - -
26/06:00am 6.1 NNE 4 6 1024.5 R 1.4 - Mostly cloudy 10 - - - -
26/05:30am 6.2 N 5 6 1024.5 - 1.4 - - 10 - - - -
26/05:00am 5.9 NE 4 6 1024.3 - 1.4 - - 10 - - - -
26/04:30am 6.4 N 5 7 1024.3 - 1.4 - - 10 - - - -
26/04:00am 6.0 SE 4 5 1024.0 - 1.4 - - 10 - - - -
26/03:30am 5.5 CALM 0 0 1024.0 - 1.4 - - 10 - - - -
26/03:00am 7.5 ESE 4 6 1024.1 F 1.4 - Mostly cloudy 10 - - - -
26/02:47am 6.4 SE 2 6 1024.1 - 1.4 - Partly cloudy 10 - - - -
26/02:31am 4.8 CALM 0 10 1024.3 - 1.4 - Partly cloudy 5 - - - -
26/02:30am 4.8 CALM 0 0 1024.3 - 1.4 - Partly cloudy 7 - - - -
26/02:29am 4.9 CALM 0 0 1024.3 - 1.4 - Partly cloudy 8 - - - -
26/02:12am 5.7 CALM 0 0 1024.1 - 1.4 - - 1 - - - -
26/02:00am 5.1 CALM 0 0 1024.0 - 1.4 - - - - - - -
26/01:30am 6.7 NNW 5 6 1024.2 - 1.4 - - 10 - - - -
26/01:00am 7.4 NNW 4 5 1024.5 - 1.4 - - 10 - - - -
26/12:30am 7.6 NNW 4 5 1024.4 - 1.4 - - 10 - - - -
26/12:00am 8.3 NNW 4 5 1024.7 R 1.4 - Mostly cloudy 10 - - - -
 
Date/Time
CST
Temp
°C
Wind Pressure Rain since
9am
mm
Weather Cloud Vis
km
Sea
Height
m
Swell
Dir  Spd
kts
Gust
kts
hPa Trend Height
m
Period
s
Dir
25/11:30pm 7.9 NNE 4 5 1024.7 - 1.4 - Partly cloudy 10 - - - -
25/11:00pm 7.4 NNE 4 5 1024.5 - 1.4 - - 10 - - - -
25/10:30pm 8.1 E 4 5 1024.5 - 1.4 - - 10 - - - -
25/10:00pm 8.1 ESE 6 7 1024.4 - 1.4 - Partly cloudy 10 - - - -
25/09:30pm 8.4 E 5 6 1024.4 - 1.4 - Partly cloudy 10 - - - -
25/09:00pm 9.0 ESE 5 5 1024.0 R 1.4 - Mostly cloudy 10 - - - -
25/08:30pm 9.7 SE 5 6 1023.8 - 1.4 - Partly cloudy 10 - - - -

Other Formats:

Comma delimited format used in spreadsheet applications
http://www.bom.gov.au/fwo/IDS60701/IDS60701.94653.axf

JavaScript Object Notation format (JSON) in row-major order
http://www.bom.gov.au/fwo/IDS60701/IDS60701.94653.json